Time;durP1;ratioP1;P1;durP2;ratioP2;P2;SDS_P1;SDS_P2;PMS_P1;PMS_P2;Temp;Humidity;BMP_temperature;BMP_pressure;BME280_temperature;BME280_humidity;BME280_pressure;Samples;Min_cycle;Max_cycle;Signal;HPM_P1;HPM_P2
2022/05/24 00:00:36;;;;;;;12.80;9.20;;;;;;;;;;1749844;82;21606;-75
2022/05/24 00:03:03;;;;;;;15.00;8.75;;;;;;;;;;1735913;81;21350;-75
2022/05/24 00:05:30;;;;;;;16.52;9.25;;;;;;;;;;1728014;82;21448;-75
2022/05/24 00:07:56;;;;;;;13.72;9.10;;;;;;;;;;1724568;81;21590;-75
2022/05/24 00:10:25;;;;;;;19.15;9.90;;;;;;;;;;1723652;83;21100;-75
2022/05/24 00:12:51;;;;;;;17.50;9.93;;;;;;;;;;1749959;82;21524;-75
2022/05/24 00:15:20;;;;;;;15.93;9.33;;;;;;;;;;1752286;82;20985;-75
2022/05/24 00:17:48;;;;;;;15.43;8.63;;;;;;;;;;1730575;81;21618;-75
2022/05/24 00:20:15;;;;;;;16.42;9.43;;;;;;;;;;1723545;82;21096;-75
2022/05/24 00:22:41;;;;;;;18.05;9.50;;;;;;;;;;1734918;82;21032;-75
2022/05/24 00:25:07;;;;;;;17.42;9.63;;;;;;;;;;1753690;82;21024;-74
2022/05/24 00:27:36;;;;;;;16.75;8.70;;;;;;;;;;1737827;82;21593;-74
2022/05/24 00:30:02;;;;;;;16.00;9.23;;;;;;;;;;1730460;82;21084;-75
2022/05/24 00:32:29;;;;;;;16.02;9.05;;;;;;;;;;1748259;81;21037;-76
2022/05/24 00:34:57;;;;;;;17.10;9.70;;;;;;;;;;1749781;82;21274;-75
2022/05/24 00:37:24;;;;;;;17.40;9.90;;;;;;;;;;1753331;81;21012;-76
2022/05/24 00:39:50;;;;;;;14.95;9.73;;;;;;;;;;1746601;81;20989;-76
2022/05/24 00:42:17;;;;;;;16.62;9.80;;;;;;;;;;1752420;82;21024;-76
2022/05/24 00:44:45;;;;;;;19.50;9.95;;;;;;;;;;1751969;82;21059;-76
2022/05/24 00:47:13;;;;;;;18.20;9.70;;;;;;;;;;1753022;82;21061;-76
2022/05/24 00:49:40;;;;;;;17.15;9.28;;;;;;;;;;1752548;82;21024;-76
2022/05/24 00:52:11;;;;;;;19.62;9.53;;;;;;;;;;1728690;82;21048;-76
2022/05/24 00:54:37;;;;;;;16.77;9.45;;;;;;;;;;1732099;82;20997;-75
2022/05/24 00:57:21;;;;;;;15.00;8.80;;;;;;;;;;1753145;82;21107;-76
2022/05/24 01:00:06;;;;;;;14.80;8.58;;;;;;;;;;1753395;81;21076;-75
2022/05/24 01:05:25;;;;;;;18.65;10.03;;;;;;;;;;1689585;82;21187;-75
2022/05/24 01:07:53;;;;;;;15.70;10.53;;;;;;;;;;1769166;81;21063;-75
2022/05/24 01:10:26;;;;;;;16.87;8.80;;;;;;;;;;1754410;81;21007;-75
2022/05/24 01:12:55;;;;;;;16.10;9.35;;;;;;;;;;1772166;81;21013;-75
2022/05/24 01:15:21;;;;;;;16.45;9.13;;;;;;;;;;1772776;81;21064;-75
2022/05/24 01:17:47;;;;;;;14.28;8.53;;;;;;;;;;1754987;81;20988;-75
2022/05/24 01:20:14;;;;;;;16.07;8.88;;;;;;;;;;1754592;81;21015;-75
2022/05/24 01:22:47;;;;;;;11.80;7.83;;;;;;;;;;1763092;81;21555;-75
2022/05/24 01:25:31;;;;;;;13.55;7.70;;;;;;;;;;1772668;81;20993;-76
2022/05/24 01:27:57;;;;;;;13.78;8.35;;;;;;;;;;1759729;81;21019;-75
2022/05/24 01:30:23;;;;;;;13.05;7.97;;;;;;;;;;1754512;81;21070;-76
2022/05/24 01:38:20;;;;;;;17.20;8.50;;;;;;;;;;1762495;81;20996;-74
2022/05/24 01:40:46;;;;;;;12.88;8.20;;;;;;;;;;1767021;81;21076;-74
2022/05/24 01:43:12;;;;;;;14.98;7.85;;;;;;;;;;1772060;81;20985;-75
2022/05/24 01:45:49;;;;;;;14.70;8.88;;;;;;;;;;1744694;81;21021;-75
2022/05/24 01:48:18;;;;;;;16.48;9.13;;;;;;;;;;1772367;81;21100;-75
2022/05/24 01:50:45;;;;;;;14.98;8.40;;;;;;;;;;1755133;81;21059;-76
2022/05/24 01:53:12;;;;;;;15.72;8.33;;;;;;;;;;1755137;81;21765;-76
2022/05/24 01:55:46;;;;;;;16.52;8.30;;;;;;;;;;1754565;81;21044;-75
2022/05/24 01:58:13;;;;;;;16.48;8.28;;;;;;;;;;1765441;81;21044;-75
2022/05/24 02:00:41;;;;;;;13.88;8.08;;;;;;;;;;1757648;81;21071;-75
2022/05/24 02:03:07;;;;;;;14.35;8.80;;;;;;;;;;1761725;80;21059;-77
2022/05/24 02:05:37;;;;;;;14.13;7.97;;;;;;;;;;1784687;80;21067;-76
2022/05/24 02:08:06;;;;;;;15.48;8.95;;;;;;;;;;1789231;80;21058;-76
2022/05/24 02:10:43;;;;;;;13.08;8.03;;;;;;;;;;1788464;79;21019;-76
2022/05/24 02:13:09;;;;;;;11.55;8.25;;;;;;;;;;1787374;80;21047;-76
2022/05/24 02:15:36;;;;;;;16.30;9.15;;;;;;;;;;1783028;80;21569;-76
2022/05/24 02:18:05;;;;;;;15.85;8.35;;;;;;;;;;1789267;80;21043;-77
2022/05/24 02:20:36;;;;;;;13.48;8.95;;;;;;;;;;1788562;80;21083;-76
2022/05/24 02:23:04;;;;;;;13.10;8.10;;;;;;;;;;1789576;80;20959;-76
2022/05/24 02:25:38;;;;;;;15.48;8.05;;;;;;;;;;1783510;80;21541;-75
2022/05/24 02:28:08;;;;;;;14.73;8.75;;;;;;;;;;1776066;80;21027;-76
2022/05/24 02:30:32;;;;;;;14.90;8.53;;;;;;;;;;1786593;80;21036;-74
2022/05/24 02:32:58;;;;;;;15.13;8.38;;;;;;;;;;1784152;80;21204;-75
2022/05/24 02:35:26;;;;;;;16.12;8.80;;;;;;;;;;1784260;80;21004;-75
2022/05/24 02:37:53;;;;;;;15.88;8.78;;;;;;;;;;1775527;80;21047;-75
2022/05/24 02:43:04;;;;;;;16.50;8.63;;;;;;;;;;1767422;80;21059;-76
2022/05/24 02:45:30;;;;;;;15.15;8.78;;;;;;;;;;1776592;80;21016;-74
2022/05/24 02:47:57;;;;;;;14.18;8.38;;;;;;;;;;1783703;80;21012;-74
2022/05/24 02:50:23;;;;;;;17.62;9.53;;;;;;;;;;1789418;80;21027;-75
2022/05/24 02:52:49;;;;;;;13.65;8.15;;;;;;;;;;1789164;80;21027;-75
2022/05/24 02:55:18;;;;;;;14.07;8.98;;;;;;;;;;1789090;80;21056;-75
2022/05/24 02:57:45;;;;;;;13.85;7.80;;;;;;;;;;1788383;80;20991;-76
2022/05/24 03:00:14;;;;;;;17.50;9.20;;;;;;;;;;1789060;80;21008;-75
2022/05/24 03:02:44;;;;;;;16.55;8.15;;;;;;;;;;1751726;80;21035;-76
2022/05/24 03:05:12;;;;;;;16.62;9.40;;;;;;;;;;1795580;78;21013;-76
2022/05/24 03:10:23;;;;;;;22.37;10.65;;;;;;;;;;1741686;82;21017;-75
2022/05/24 03:15:36;;;;;;;20.45;10.68;;;;;;;;;;1698754;83;21096;-75
2022/05/24 03:18:03;;;;;;;20.12;11.25;;;;;;;;;;1735522;82;21196;-75
2022/05/24 03:20:29;;;;;;;20.40;10.35;;;;;;;;;;1749159;82;21020;-75
2022/05/24 03:22:57;;;;;;;22.07;11.97;;;;;;;;;;1732288;82;21542;-75
2022/05/24 03:25:25;;;;;;;24.12;11.40;;;;;;;;;;1737546;82;21008;-75
2022/05/24 03:27:52;;;;;;;20.72;10.32;;;;;;;;;;1710047;82;21538;-74
2022/05/24 03:30:19;;;;;;;22.42;11.73;;;;;;;;;;1709732;82;21046;-74
2022/05/24 03:32:48;;;;;;;19.20;10.93;;;;;;;;;;1709576;82;21020;-75
2022/05/24 03:35:16;;;;;;;18.95;10.98;;;;;;;;;;1717637;83;21100;-75
2022/05/24 03:37:42;;;;;;;19.48;9.78;;;;;;;;;;1724148;82;21071;-75
2022/05/24 03:40:08;;;;;;;19.57;10.82;;;;;;;;;;1733877;82;20950;-75
2022/05/24 03:42:37;;;;;;;21.00;10.98;;;;;;;;;;1674270;85;21084;-75
2022/05/24 03:45:05;;;;;;;23.57;11.45;;;;;;;;;;1695624;83;21084;-76
2022/05/24 03:47:32;;;;;;;19.85;12.28;;;;;;;;;;1727383;82;21116;-76
2022/05/24 03:49:58;;;;;;;18.40;9.80;;;;;;;;;;1738144;82;20989;-77
2022/05/24 03:52:24;;;;;;;21.07;12.65;;;;;;;;;;1752620;82;20977;-78
2022/05/24 03:54:51;;;;;;;22.25;11.68;;;;;;;;;;1722497;82;21521;-77
2022/05/24 04:00:01;;;;;;;22.20;13.30;;;;;;;;;;1709422;84;20987;-77
2022/05/24 04:02:27;;;;;;;19.77;12.53;;;;;;;;;;1709552;82;21011;-78
2022/05/24 04:04:54;;;;;;;22.15;12.30;;;;;;;;;;1715313;82;21032;-77
2022/05/24 04:07:20;;;;;;;17.90;11.60;;;;;;;;;;1729214;82;21070;-78
2022/05/24 04:09:46;;;;;;;19.57;12.85;;;;;;;;;;1727060;82;21031;-78
2022/05/24 04:12:13;;;;;;;20.80;13.58;;;;;;;;;;1721435;82;21040;-77
2022/05/24 04:14:40;;;;;;;19.25;12.93;;;;;;;;;;1713636;84;21082;-77
2022/05/24 04:17:05;;;;;;;19.65;12.23;;;;;;;;;;1714108;82;21511;-77
2022/05/24 04:19:33;;;;;;;21.35;12.95;;;;;;;;;;1716961;82;21000;-77
2022/05/24 04:21:59;;;;;;;20.37;11.97;;;;;;;;;;1722004;82;21051;-78
2022/05/24 04:24:26;;;;;;;16.97;11.80;;;;;;;;;;1713702;84;21579;-78
2022/05/24 04:26:54;;;;;;;18.87;11.70;;;;;;;;;;1713838;82;21020;-76
2022/05/24 04:29:20;;;;;;;17.82;11.30;;;;;;;;;;1714421;82;20996;-77
2022/05/24 04:31:46;;;;;;;19.55;12.23;;;;;;;;;;1732023;82;21063;-77
2022/05/24 04:34:13;;;;;;;17.37;10.78;;;;;;;;;;1716792;82;21000;-78
2022/05/24 04:36:38;;;;;;;20.17;12.60;;;;;;;;;;1730886;82;20949;-77
2022/05/24 04:39:06;;;;;;;17.80;10.72;;;;;;;;;;1737224;82;21044;-78
2022/05/24 04:44:20;;;;;;;21.93;12.68;;;;;;;;;;1724683;82;21606;-77
2022/05/24 04:49:32;;;;;;;18.27;11.83;;;;;;;;;;1722703;82;21088;-77
2022/05/24 04:52:00;;;;;;;17.23;11.75;;;;;;;;;;1714094;82;21538;-78
2022/05/24 04:54:27;;;;;;;18.37;12.20;;;;;;;;;;1713814;84;21008;-77
2022/05/24 04:56:53;;;;;;;16.25;10.98;;;;;;;;;;1714061;82;21027;-77
2022/05/24 04:59:20;;;;;;;14.33;10.08;;;;;;;;;;1713815;84;21060;-78
2022/05/24 05:01:47;;;;;;;14.75;8.88;;;;;;;;;;1732613;82;21531;-78
2022/05/24 05:04:13;;;;;;;13.53;9.35;;;;;;;;;;1715214;82;21040;-78
2022/05/24 05:06:42;;;;;;;8.78;6.97;;;;;;;;;;1742551;82;21136;-78
2022/05/24 05:09:09;;;;;;;13.18;7.60;;;;;;;;;;1749471;82;21145;-78
2022/05/24 05:11:36;;;;;;;12.30;7.00;;;;;;;;;;1738896;82;21059;-79
2022/05/24 05:14:04;;;;;;;9.23;6.03;;;;;;;;;;1737724;82;21039;-78
2022/05/24 05:16:30;;;;;;;9.08;5.97;;;;;;;;;;1749412;82;21483;-78
2022/05/24 05:18:59;;;;;;;10.75;5.20;;;;;;;;;;1749483;82;21040;-72
2022/05/24 05:21:31;;;;;;;8.70;5.10;;;;;;;;;;1740779;82;21491;-75
2022/05/24 05:23:59;;;;;;;7.65;4.50;;;;;;;;;;1734040;82;21067;-75
2022/05/24 05:26:25;;;;;;;7.53;4.42;;;;;;;;;;1733872;82;22044;-76
2022/05/24 05:28:51;;;;;;;8.08;4.70;;;;;;;;;;1738832;82;21064;-75
2022/05/24 05:31:21;;;;;;;4.92;3.87;;;;;;;;;;1733260;82;21087;-75
2022/05/24 05:33:50;;;;;;;8.20;4.00;;;;;;;;;;1742561;82;21096;-75
2022/05/24 05:36:16;;;;;;;7.33;4.08;;;;;;;;;;1781192;80;21028;-76
2022/05/24 05:38:46;;;;;;;7.97;4.70;;;;;;;;;;1774422;81;21016;-75
2022/05/24 05:41:15;;;;;;;6.95;4.53;;;;;;;;;;1809131;79;21011;-75
2022/05/24 05:43:42;;;;;;;8.50;4.70;;;;;;;;;;1789863;78;21016;-74
2022/05/24 05:46:09;;;;;;;7.35;4.53;;;;;;;;;;1774509;81;20992;-77
2022/05/24 05:48:35;;;;;;;6.25;4.50;;;;;;;;;;1774411;81;21051;-76
2022/05/24 05:51:02;;;;;;;8.33;4.62;;;;;;;;;;1774191;81;21115;-76
2022/05/24 05:53:28;;;;;;;5.78;3.83;;;;;;;;;;1772294;81;21066;-74
2022/05/24 05:55:55;;;;;;;5.45;3.87;;;;;;;;;;1725929;83;21153;-75
2022/05/24 05:58:22;;;;;;;6.58;3.77;;;;;;;;;;1719906;83;21064;-73
2022/05/24 06:00:48;;;;;;;6.45;4.53;;;;;;;;;;1734315;82;21008;-74
2022/05/24 06:03:14;;;;;;;7.22;3.98;;;;;;;;;;1733125;82;21078;-76
2022/05/24 06:05:40;;;;;;;7.15;3.98;;;;;;;;;;1729493;82;21044;-75
2022/05/24 06:08:10;;;;;;;5.83;4.15;;;;;;;;;;1757822;79;21112;-74
2022/05/24 06:10:36;;;;;;;5.42;3.92;;;;;;;;;;1754915;78;21006;-77
2022/05/24 06:13:03;;;;;;;6.22;3.87;;;;;;;;;;1756365;78;20978;-75
2022/05/24 06:15:30;;;;;;;5.25;3.40;;;;;;;;;;1761825;80;21046;-75
2022/05/24 06:17:56;;;;;;;5.25;3.42;;;;;;;;;;1759785;78;21026;-76
2022/05/24 06:20:26;;;;;;;5.33;3.37;;;;;;;;;;1759708;80;20992;-74
2022/05/24 06:22:57;;;;;;;5.42;3.10;;;;;;;;;;1756211;82;21005;-73
2022/05/24 06:25:23;;;;;;;6.35;3.40;;;;;;;;;;1756548;82;21037;-73
2022/05/24 06:27:50;;;;;;;5.40;3.08;;;;;;;;;;1756361;82;21095;-72
2022/05/24 06:30:20;;;;;;;4.05;2.65;;;;;;;;;;1756208;82;21123;-73
2022/05/24 06:32:47;;;;;;;5.33;2.70;;;;;;;;;;1763730;80;21556;-73
2022/05/24 06:35:13;;;;;;;5.47;2.62;;;;;;;;;;1758947;80;21040;-73
2022/05/24 06:37:40;;;;;;;4.15;2.50;;;;;;;;;;1726746;83;21013;-75
2022/05/24 06:40:09;;;;;;;3.83;2.40;;;;;;;;;;1762727;81;21584;-74
2022/05/24 06:42:35;;;;;;;3.95;2.47;;;;;;;;;;1741921;82;21020;-76
2022/05/24 06:45:01;;;;;;;3.00;2.40;;;;;;;;;;1800001;80;20994;-75
2022/05/24 06:47:27;;;;;;;3.17;2.08;;;;;;;;;;1814114;79;20984;-83
2022/05/24 06:49:55;;;;;;;3.33;2.22;;;;;;;;;;1801411;79;21027;-77
2022/05/24 06:52:22;;;;;;;3.40;2.25;;;;;;;;;;1777292;80;20985;-73
2022/05/24 06:54:49;;;;;;;4.83;2.52;;;;;;;;;;1800447;79;21538;-72
2022/05/24 06:57:15;;;;;;;3.80;2.40;;;;;;;;;;1770772;80;21026;-71
2022/05/24 07:02:28;;;;;;;4.95;2.52;;;;;;;;;;1725336;82;21525;-72
2022/05/24 07:05:01;;;;;;;7.37;2.45;;;;;;;;;;1756549;82;21048;-73
2022/05/24 07:07:29;;;;;;;4.47;2.65;;;;;;;;;;1744162;81;21091;-76
2022/05/24 07:09:55;;;;;;;4.37;2.98;;;;;;;;;;1779080;80;21582;-73
2022/05/24 07:12:21;;;;;;;4.25;2.72;;;;;;;;;;1786837;80;21843;-74
2022/05/24 07:14:48;;;;;;;3.65;2.50;;;;;;;;;;1764507;81;21081;-73
2022/05/24 07:17:15;;;;;;;5.45;2.60;;;;;;;;;;1767611;81;20953;-79
2022/05/24 07:19:42;;;;;;;4.72;2.98;;;;;;;;;;1767537;81;21005;-76
2022/05/24 07:22:08;;;;;;;4.80;2.60;;;;;;;;;;1767787;81;20981;-75
2022/05/24 07:24:35;;;;;;;4.12;2.67;;;;;;;;;;1765661;80;21108;-77
2022/05/24 07:27:03;;;;;;;3.77;2.72;;;;;;;;;;1732947;82;21079;-79
2022/05/24 07:29:34;;;;;;;3.77;2.47;;;;;;;;;;1738752;82;21017;-77
2022/05/24 07:32:00;;;;;;;4.53;2.35;;;;;;;;;;1738826;82;21001;-77
2022/05/24 07:34:26;;;;;;;4.95;2.72;;;;;;;;;;1738734;82;21068;-77
2022/05/24 07:36:52;;;;;;;4.12;2.40;;;;;;;;;;1738467;82;21552;-79
2022/05/24 07:39:18;;;;;;;5.47;2.52;;;;;;;;;;1739026;82;21029;-76
2022/05/24 07:47:13;;;;;;;3.42;2.58;;;;;;;;;;1738900;82;21001;-77
2022/05/24 07:49:39;;;;;;;5.15;2.60;;;;;;;;;;1738799;82;21141;-76
2022/05/24 07:52:07;;;;;;;3.20;2.47;;;;;;;;;;1738421;82;21021;-75
2022/05/24 07:54:36;;;;;;;4.28;2.67;;;;;;;;;;1738622;82;21076;-76
2022/05/24 07:57:03;;;;;;;4.05;2.75;;;;;;;;;;1738586;82;21524;-76
2022/05/24 07:59:30;;;;;;;4.35;2.67;;;;;;;;;;1738590;82;21024;-76
2022/05/24 08:01:57;;;;;;;4.12;2.70;;;;;;;;;;1717603;82;21006;-77
2022/05/24 08:04:23;;;;;;;5.47;3.37;;;;;;;;;;1738605;82;21048;-76
2022/05/24 08:06:49;;;;;;;3.85;2.45;;;;;;;;;;1746576;79;21034;-75
2022/05/24 08:09:15;;;;;;;3.98;2.72;;;;;;;;;;1769559;81;21052;-76
2022/05/24 08:11:42;;;;;;;3.47;2.47;;;;;;;;;;1761376;81;21571;-76
2022/05/24 08:14:08;;;;;;;3.75;2.30;;;;;;;;;;1755172;81;21084;-75
2022/05/24 08:16:34;;;;;;;4.30;2.80;;;;;;;;;;1789526;80;21037;-76
2022/05/24 08:19:02;;;;;;;4.20;2.22;;;;;;;;;;1752825;81;21056;-75
2022/05/24 08:21:29;;;;;;;5.90;3.25;;;;;;;;;;1747525;82;21026;-74
2022/05/24 08:23:56;;;;;;;3.50;2.37;;;;;;;;;;1753648;80;21485;-74
2022/05/24 08:28:22;;;;;;;3.60;2.47;;;;;;;;;;1808738;78;23528;-76
2022/05/24 08:30:50;;;;;;;4.67;2.37;;;;;;;;;;1777447;80;21021;-76
2022/05/24 08:33:17;;;;;;;3.42;2.50;;;;;;;;;;1761696;81;21060;-76
2022/05/24 08:35:44;;;;;;;3.52;2.33;;;;;;;;;;1761799;81;20993;-76
2022/05/24 08:38:12;;;;;;;3.75;2.42;;;;;;;;;;1761844;81;21519;-75
2022/05/24 08:40:38;;;;;;;4.97;2.22;;;;;;;;;;1778217;80;21016;-76
2022/05/24 08:43:11;;;;;;;3.92;2.10;;;;;;;;;;1796055;80;21056;-75
2022/05/24 08:48:26;;;;;;;2.92;2.20;;;;;;;;;;1796359;80;21076;-76
2022/05/24 08:50:54;;;;;;;6.50;2.33;;;;;;;;;;1779624;80;21016;-76
2022/05/24 08:53:26;;;;;;;3.60;2.05;;;;;;;;;;1787072;80;21019;-76
2022/05/24 08:55:55;;;;;;;5.20;2.70;;;;;;;;;;1768072;80;21161;-75
2022/05/24 08:58:27;;;;;;;4.33;2.42;;;;;;;;;;1764492;80;21000;-75
2022/05/24 09:00:53;;;;;;;5.97;2.60;;;;;;;;;;1765093;80;21567;-75
2022/05/24 09:03:24;;;;;;;4.92;2.77;;;;;;;;;;1774605;80;21099;-76
2022/05/24 09:05:49;;;;;;;4.85;2.75;;;;;;;;;;1761580;81;21580;-79
2022/05/24 09:08:23;;;;;;;3.95;2.35;;;;;;;;;;1761440;80;21075;-76
2022/05/24 09:11:00;;;;;;;3.58;2.58;;;;;;;;;;1767110;80;21134;-76
2022/05/24 09:13:40;;;;;;;3.27;2.35;;;;;;;;;;1756049;81;21068;-76
2022/05/24 09:16:15;;;;;;;3.33;2.30;;;;;;;;;;1781768;80;21032;-77
2022/05/24 09:19:04;;;;;;;4.05;2.50;;;;;;;;;;1737768;80;21068;-77
2022/05/24 09:21:31;;;;;;;4.33;2.10;;;;;;;;;;1760415;80;21068;-76
2022/05/24 09:24:05;;;;;;;3.50;2.40;;;;;;;;;;1761912;81;21575;-74
2022/05/24 09:26:34;;;;;;;3.83;2.33;;;;;;;;;;1782118;80;21638;-68
2022/05/24 09:29:11;;;;;;;4.53;2.50;;;;;;;;;;1781163;80;21051;-69
2022/05/24 09:31:42;;;;;;;2.83;2.00;;;;;;;;;;1770074;80;21032;-68
2022/05/24 09:34:19;;;;;;;4.00;1.92;;;;;;;;;;1779499;80;21064;-67
2022/05/24 09:36:51;;;;;;;3.87;2.40;;;;;;;;;;1783458;80;21563;-68
2022/05/24 09:39:21;;;;;;;3.80;2.40;;;;;;;;;;1738225;80;21505;-69
2022/05/24 09:41:54;;;;;;;4.15;2.20;;;;;;;;;;1779073;80;21523;-69
2022/05/24 09:44:20;;;;;;;3.30;2.22;;;;;;;;;;1781812;80;20949;-68
2022/05/24 09:46:47;;;;;;;4.30;2.58;;;;;;;;;;1784282;80;21507;-69
2022/05/24 09:49:33;;;;;;;2.80;2.20;;;;;;;;;;1780688;80;21052;-67
2022/05/24 09:52:00;;;;;;;2.98;2.17;;;;;;;;;;1751803;80;21576;-68
2022/05/24 09:54:28;;;;;;;3.62;2.25;;;;;;;;;;1749711;80;21013;-69
2022/05/24 09:57:02;;;;;;;4.12;2.17;;;;;;;;;;1757640;80;21000;-68
2022/05/24 09:59:29;;;;;;;3.50;2.40;;;;;;;;;;1767143;80;21085;-68
2022/05/24 10:01:55;;;;;;;3.10;2.10;;;;;;;;;;1738551;81;21108;-68
2022/05/24 10:04:27;;;;;;;4.08;2.33;;;;;;;;;;1765954;80;21044;-68
2022/05/24 10:06:55;;;;;;;2.80;2.15;;;;;;;;;;1784202;80;21067;-68
2022/05/24 10:09:23;;;;;;;4.80;2.70;;;;;;;;;;1762256;80;21048;-68
2022/05/24 10:11:51;;;;;;;3.12;2.10;;;;;;;;;;1763458;80;21088;-68
2022/05/24 10:14:34;;;;;;;2.90;2.22;;;;;;;;;;1768944;80;21091;-68
2022/05/24 10:17:11;;;;;;;2.87;2.10;;;;;;;;;;1763921;80;21050;-68
2022/05/24 10:19:50;;;;;;;2.72;2.00;;;;;;;;;;1778442;80;21048;-68
2022/05/24 10:22:37;;;;;;;3.47;2.15;;;;;;;;;;1760025;80;21090;-68
2022/05/24 10:25:10;;;;;;;3.37;2.55;;;;;;;;;;1781729;80;21047;-68
2022/05/24 10:27:36;;;;;;;;;;;;;;;;;;1783456;80;21541;-69
2022/05/24 10:30:07;;;;;;;3.42;2.12;;;;;;;;;;1755547;80;20126;-68
2022/05/24 10:38:19;;;;;;;3.10;2.30;;;;;;;;;;1789985;80;21090;-76
2022/05/24 10:40:49;;;;;;;3.67;2.17;;;;;;;;;;1790081;80;21091;-78
2022/05/24 10:43:26;;;;;;;4.35;2.50;;;;;;;;;;1790122;80;21031;-76
2022/05/24 10:46:01;;;;;;;2.25;1.90;;;;;;;;;;1787462;80;21052;-76
2022/05/24 10:48:26;;;;;;;3.35;1.90;;;;;;;;;;1789477;80;21004;-76
2022/05/24 10:50:55;;;;;;;3.67;2.50;;;;;;;;;;1763468;80;21064;-77
2022/05/24 10:53:26;;;;;;;4.33;1.90;;;;;;;;;;1749381;82;21092;-78
2022/05/24 10:55:57;;;;;;;2.62;2.12;;;;;;;;;;1753292;82;21041;-77
2022/05/24 10:58:23;;;;;;;2.85;1.90;;;;;;;;;;1756026;81;20993;-78
2022/05/24 11:00:54;;;;;;;3.85;2.27;;;;;;;;;;1757674;82;21014;-78
2022/05/24 11:03:23;;;;;;;2.80;2.12;;;;;;;;;;1756128;82;21092;-78
2022/05/24 11:05:54;;;;;;;2.42;2.02;;;;;;;;;;1756454;81;21057;-78
2022/05/24 11:08:22;;;;;;;2.98;2.17;;;;;;;;;;1754455;82;21049;-79
2022/05/24 11:10:49;;;;;;;3.77;2.12;;;;;;;;;;1749214;82;21020;-77
2022/05/24 11:13:21;;;;;;;3.58;2.00;;;;;;;;;;1750255;82;21090;-77
2022/05/24 11:15:53;;;;;;;3.58;2.25;;;;;;;;;;1751701;82;21009;-77
2022/05/24 11:18:21;;;;;;;3.40;2.22;;;;;;;;;;1759869;80;20974;-77
2022/05/24 11:20:51;;;;;;;2.12;1.90;;;;;;;;;;1755608;81;21038;-77
2022/05/24 11:23:21;;;;;;;4.03;2.00;;;;;;;;;;1767740;80;21508;-79
2022/05/24 11:25:50;;;;;;;2.65;1.98;;;;;;;;;;1770034;80;21161;-78
2022/05/24 11:28:24;;;;;;;3.50;2.00;;;;;;;;;;1783573;80;21060;-80
2022/05/24 11:30:51;;;;;;;3.02;2.10;;;;;;;;;;1783403;80;22115;-76
2022/05/24 11:33:20;;;;;;;2.52;2.08;;;;;;;;;;1784197;80;21040;-78
2022/05/24 11:35:50;;;;;;;2.83;2.27;;;;;;;;;;1778548;80;21051;-78
2022/05/24 11:38:21;;;;;;;3.83;2.17;;;;;;;;;;1784218;80;21468;-77
2022/05/24 11:40:52;;;;;;;2.80;2.00;;;;;;;;;;1781416;80;21507;-77
2022/05/24 11:43:39;;;;;;;2.37;2.00;;;;;;;;;;1721445;80;21112;-77
2022/05/24 11:46:10;;;;;;;3.77;2.37;;;;;;;;;;1748277;81;21053;-77
2022/05/24 11:48:48;;;;;;;3.85;2.40;;;;;;;;;;1750445;80;21069;-75
2022/05/24 11:51:33;;;;;;;2.60;2.10;;;;;;;;;;1747722;80;21009;-77
2022/05/24 11:54:00;;;;;;;3.22;2.30;;;;;;;;;;1757755;80;21001;-77
2022/05/24 11:56:26;;;;;;;3.15;2.08;;;;;;;;;;1750717;80;21036;-77
2022/05/24 11:59:00;;;;;;;3.20;2.20;;;;;;;;;;1748240;81;21028;-77
2022/05/24 12:01:28;;;;;;;2.77;2.10;;;;;;;;;;1748123;82;21025;-76
2022/05/24 12:09:29;;;;;;;3.30;2.40;;;;;;;;;;1694948;83;21100;-77
2022/05/24 12:12:16;;;;;;;2.98;2.25;;;;;;;;;;1717224;83;21628;-78
2022/05/24 12:14:43;;;;;;;6.92;2.60;;;;;;;;;;1729757;80;21029;-78
2022/05/24 12:17:09;;;;;;;2.45;2.02;;;;;;;;;;1747724;80;20989;-80
2022/05/24 12:19:43;;;;;;;2.25;1.80;;;;;;;;;;1750464;80;21009;-78
2022/05/24 12:22:10;;;;;;;4.87;2.75;;;;;;;;;;1772928;80;21730;-79
2022/05/24 12:24:38;;;;;;;3.10;2.70;;;;;;;;;;1784386;80;21015;-79
2022/05/24 12:27:15;;;;;;;3.65;2.20;;;;;;;;;;1782389;80;21706;-79
2022/05/24 12:29:42;;;;;;;3.40;2.50;;;;;;;;;;1718417;83;21092;-79
2022/05/24 12:32:08;;;;;;;2.98;2.10;;;;;;;;;;1718417;83;21544;-79
2022/05/24 12:34:36;;;;;;;2.80;2.08;;;;;;;;;;1763433;80;21020;-79
2022/05/24 12:37:04;;;;;;;3.52;2.30;;;;;;;;;;1751249;80;21092;-80
2022/05/24 12:39:33;;;;;;;3.45;2.30;;;;;;;;;;1745501;81;21552;-79
2022/05/24 12:42:01;;;;;;;6.67;2.30;;;;;;;;;;1743520;82;21533;-80
2022/05/24 12:44:31;;;;;;;4.05;2.10;;;;;;;;;;1720998;82;21105;-79
2022/05/24 12:47:08;;;;;;;4.05;2.05;;;;;;;;;;1721336;82;20995;-80
2022/05/24 12:49:35;;;;;;;3.85;2.70;;;;;;;;;;1746387;82;21117;-80
2022/05/24 12:52:05;;;;;;;3.27;2.20;;;;;;;;;;1743410;82;21128;-80
2022/05/24 12:54:33;;;;;;;3.95;2.15;;;;;;;;;;1738802;82;21120;-80
2022/05/24 12:57:04;;;;;;;2.92;2.15;;;;;;;;;;1739493;82;21092;-80
2022/05/24 12:59:36;;;;;;;3.08;2.30;;;;;;;;;;1741818;82;21017;-80
2022/05/24 13:02:23;;;;;;;2.80;2.20;;;;;;;;;;1741662;81;21784;-79
2022/05/24 13:04:49;;;;;;;3.25;2.22;;;;;;;;;;1756948;81;21579;-79
2022/05/24 13:07:19;;;;;;;3.37;2.33;;;;;;;;;;1750799;80;20998;-78
2022/05/24 13:09:45;;;;;;;3.02;2.33;;;;;;;;;;1751909;81;20993;-78
2022/05/24 13:12:11;;;;;;;3.42;2.40;;;;;;;;;;1768824;81;20998;-79
2022/05/24 13:14:42;;;;;;;3.80;2.40;;;;;;;;;;1769148;81;21489;-78
2022/05/24 13:17:09;;;;;;;3.92;2.25;;;;;;;;;;1768821;81;20986;-78
2022/05/24 13:19:55;;;;;;;2.67;2.10;;;;;;;;;;1769002;81;21536;-78
2022/05/24 13:22:23;;;;;;;2.83;2.20;;;;;;;;;;1760916;81;21061;-77
2022/05/24 13:24:57;;;;;;;4.20;2.45;;;;;;;;;;1748125;82;21014;-78
2022/05/24 13:27:23;;;;;;;4.62;2.62;;;;;;;;;;1748520;81;21324;-79
2022/05/24 13:35:24;;;;;;;5.47;2.62;;;;;;;;;;1750171;81;20995;-79
2022/05/24 13:37:54;;;;;;;3.37;2.10;;;;;;;;;;1751656;81;21142;-79
2022/05/24 13:40:22;;;;;;;3.85;2.40;;;;;;;;;;1757181;81;21010;-79
2022/05/24 13:42:53;;;;;;;4.10;2.17;;;;;;;;;;1728006;82;21051;-79
2022/05/24 13:45:21;;;;;;;2.85;2.05;;;;;;;;;;1728835;82;21066;-78
2022/05/24 13:47:54;;;;;;;2.25;1.87;;;;;;;;;;1738176;80;21040;-79
2022/05/24 13:50:20;;;;;;;;;;;;;;;;;;1764198;81;21547;-79
2022/05/24 13:52:50;;;;;;;2.90;1.92;;;;;;;;;;1761499;81;20143;-77
2022/05/24 13:55:18;;;;;;;2.83;2.02;;;;;;;;;;1761524;81;21005;-78
2022/05/24 13:57:46;;;;;;;4.55;2.50;;;;;;;;;;1761517;81;21040;-78
2022/05/24 14:00:14;;;;;;;5.17;2.40;;;;;;;;;;1761802;81;21554;-79
2022/05/24 14:02:41;;;;;;;3.17;2.30;;;;;;;;;;1761407;80;21006;-78
2022/05/24 14:05:09;;;;;;;3.37;2.20;;;;;;;;;;1773836;80;21016;-78
2022/05/24 14:07:35;;;;;;;2.67;2.10;;;;;;;;;;1761936;81;21064;-77
2022/05/24 14:10:02;;;;;;;3.40;2.00;;;;;;;;;;1761792;81;21058;-78
2022/05/24 14:12:29;;;;;;;5.15;2.25;;;;;;;;;;1761966;81;21008;-78
2022/05/24 14:14:57;;;;;;;3.00;2.10;;;;;;;;;;1761683;81;21055;-77
2022/05/24 14:17:28;;;;;;;3.87;2.35;;;;;;;;;;1761785;81;21096;-80
2022/05/24 14:19:54;;;;;;;4.70;2.40;;;;;;;;;;1761761;81;21069;-79
2022/05/24 14:22:20;;;;;;;3.75;2.30;;;;;;;;;;1761743;81;21023;-78
2022/05/24 14:24:47;;;;;;;4.28;2.22;;;;;;;;;;1733988;81;21075;-79
2022/05/24 14:27:13;;;;;;;3.35;2.50;;;;;;;;;;1761226;81;21047;-78
2022/05/24 14:29:40;;;;;;;3.50;2.22;;;;;;;;;;1761365;81;21059;-78
2022/05/24 14:32:06;;;;;;;2.98;2.35;;;;;;;;;;1761498;81;21518;-77
2022/05/24 14:34:33;;;;;;;3.05;2.33;;;;;;;;;;1761330;80;20994;-79
2022/05/24 14:36:59;;;;;;;3.30;2.50;;;;;;;;;;1761462;81;21085;-77
2022/05/24 14:39:25;;;;;;;5.35;2.20;;;;;;;;;;1761380;81;21050;-79
2022/05/24 14:41:51;;;;;;;3.95;2.20;;;;;;;;;;1761562;81;21014;-79
2022/05/24 14:44:25;;;;;;;2.62;2.12;;;;;;;;;;1761474;81;21053;-79
2022/05/24 14:46:51;;;;;;;3.35;2.10;;;;;;;;;;1760725;81;21498;-79
2022/05/24 14:49:17;;;;;;;2.92;2.22;;;;;;;;;;1761441;81;21010;-78
2022/05/24 14:51:45;;;;;;;3.52;2.17;;;;;;;;;;1761232;81;21062;-77
2022/05/24 14:54:12;;;;;;;3.92;2.40;;;;;;;;;;1761269;81;21038;-78
2022/05/24 14:56:38;;;;;;;4.22;2.25;;;;;;;;;;1761320;81;21038;-78
2022/05/24 14:59:04;;;;;;;3.22;2.30;;;;;;;;;;1761397;81;21116;-78
2022/05/24 15:01:30;;;;;;;4.10;2.70;;;;;;;;;;1761494;81;21076;-78
2022/05/24 15:03:57;;;;;;;4.40;2.50;;;;;;;;;;1761322;81;21045;-79
2022/05/24 15:06:23;;;;;;;4.80;2.42;;;;;;;;;;1761654;81;21030;-78
2022/05/24 15:17:07;;;;;;;2.75;2.00;;;;;;;;;;1761555;81;21064;-77
2022/05/24 15:19:33;;;;;;;5.37;3.58;;;;;;;;;;1761597;81;21052;-77
2022/05/24 15:21:59;;;;;;;3.98;3.20;;;;;;;;;;1761417;81;20993;-78
2022/05/24 15:24:26;;;;;;;3.15;2.45;;;;;;;;;;1744457;81;21064;-76
2022/05/24 15:26:54;;;;;;;3.35;2.20;;;;;;;;;;1761466;81;21492;-77
2022/05/24 15:29:21;;;;;;;3.58;2.47;;;;;;;;;;1761394;81;21099;-78
2022/05/24 15:31:49;;;;;;;3.00;2.10;;;;;;;;;;1761430;81;20973;-78
2022/05/24 15:34:16;;;;;;;3.25;2.40;;;;;;;;;;1761448;81;21024;-77
2022/05/24 15:36:43;;;;;;;4.70;2.70;;;;;;;;;;1761403;81;21107;-77
2022/05/24 15:39:10;;;;;;;3.20;2.30;;;;;;;;;;1761453;81;21734;-78
2022/05/24 15:41:37;;;;;;;5.62;2.37;;;;;;;;;;1760468;81;21091;-77
2022/05/24 15:44:05;;;;;;;5.25;2.80;;;;;;;;;;1761545;81;21001;-77
2022/05/24 15:46:31;;;;;;;3.87;2.80;;;;;;;;;;1761791;81;21047;-77
2022/05/24 15:48:57;;;;;;;5.72;2.90;;;;;;;;;;1761669;81;21032;-77